Sargodha, Pakistan
Current Conditions -  °F | °C
As of 5:25 PM on Tuesday 27 Jan 2015 (Local Time) from OPLA Reporting Station
Smoke Smoke  
Wind Chill: 57°   Ceiling: Unl
Heat Index: 57°   Visibility: 1.5mi
Dew Point: 45°   Wind: 6mph
Humidity: 63%   Direction: 350°N
Pressure: 30.12"   Gusts: NA
Location:  32.08°N, 72.67°E
Report Text: OPLA 271225Z 35005KT 2500 FU NSC 14/07 Q1020
Loading
Personal Weather Stations






























Interactive Weather Map New forecast layout! Learn more

10-Day Weather Forecast

Advertisements
Track Severe Weather on mobile